ジョージタウン の空港の天気 - METARとTAF

チェディ・ジェーガン国際空港 ( SYCJ / GEO ) - ガイアナ ジョージタウン
飛行場実況気象(Metar)
観測時間05/26 20:00 GYT (05/27 00:00 UTC)
風向・風速東 2m/s
視程10km以上
天気現象
全天の4割程度の雲 雲底高度 490m
全天の4割程度の雲 雲底高度 1100m
気温26℃
湿度89%
気圧1014hPa
METARSYCJ 270000Z 08004KT 9999 SCT016 SCT036 26/24 Q1014 NOSIG
過去の天気等 Google飛行場航空写真 Wunderground天気予報

過去48時間のMETAR

飛行場予報(TAF)
発表時間: -
27日1時 GYT ~ 27日3時 GYT に徐々に
風向・風速不定 1m/s
視程4000m
天気現象もや
全天の4割程度の雲 雲底高度 460m
27日4時 GYT ~ 27日6時 GYT に一時的に
視程4000m
天気現象しゅう雨
全天の8割程度の雲 雲底高度 430m
全天の8割程度の雲 雲底高度 1160m
TAF SYCJ 262300 2700/2724 06006KT 9999 FEW015 BKN100
BECMG 2705/2707 VRB02KT 4000 BR SCT015
TEMPO 2708/2710 4000 SHRA BKN014 BKN038